Stanford, IL (61774)

9:27 AM CDT on July 30, 2016 (GMT -0500)
Uptown Stanford | | Change Station

Elev 699 ft 40.43 °N, 89.22 °W | Updated 32 seconds ago

Overcast
Overcast
75.0 °F
Feels Like 76 °F
N
2.2
Wind Variable Wind from West

Today
High -- | Low -- °F
--% Chance of Precip.
Yesterday
High -- | Low -- °F
Precip. -- in
Pressure 30.03 in
Visibility 7.0 miles
Clouds Overcast 600 ft
Heat Index 76 °F
Dew Point 68 °F
Humidity 79%
Rainfall 0.00 in
Snow Depth Not available.
5:52 AM 8:13 PM
Waning Crescent, 13% visible
METAR KBMI 301356Z 34007KT 7SM OVC006 21/19 A2999 RMK AO2 SLP167 T02110194
Pressure 30.03 in
Visibility 7.0 miles
Clouds Overcast 600 ft
Heat Index 76 °F
Dew Point 68 °F
Humidity 79%
Rainfall 0.00 in
Snow Depth Not available.
5:52 AM 8:13 PM
Waning Crescent, 13% visible
METAR KBMI 301356Z 34007KT 7SM OVC006 21/19 A2999 RMK AO2 SLP167 T02110194

10-Day Weather Forecast

Almanac

Astronomy

Jul. 30, 2016 Rise Set
Actual Time
Civil Twilight
Nautical Twilight
Astronomical Twilight
Moon
Length of Visible Light
Length of Day
Tomorrow will be .
, % of the Moon is Illuminated

Today's Extremes

State Highs State Lows

Community

WunderPhotos

Upload Photos

1,928,565 photos uploaded!

WunderBlog® & News

Nearby

Air Quality

  Air Quality AQ Index Pollutant
Not available.

Snow Depth

Station Depth Elevation

Earthquake Activity

City Distance Mag. Time & Date
Minimum magnitude displayed is 2.5.

Coastal Water Temperatures

Place Temperature

Stations

Nearby Weather Stations

Station Location Temp. Windchill Dew Point Humidity Wind Precip. Elev Updated Type
                   

Watches & Warnings

There are currently no watches in effect.